Date,TemperatureHighF,TemperatureAvgF,TemperatureLowF,DewpointHighF,DewpointAvgF,DewpointLowF,HumidityHigh,HumidityAvg,HumidityLow,PressureMaxIn,PressureMinIn,WindSpeedMaxMPH,WindSpeedAvgMPH,GustSpeedMaxMPH,PrecipitationSumIn
2013-1-1,58,55,52,51,48,44,83,76,71,30.32,30.11,6,2,6,0.01
2013-1-2,55,51,44,52,47,39,91,85,79,30.36,30.05,13,4,13,0.14
2013-1-3,44,42,38,41,38,33,88,84,79,30.43,30.29,10,3,10,0.10
2013-1-4,53,42,33,36,32,28,87,71,50,30.50,30.36,8,2,9,0.06
2013-1-5,55,41,30,35,30,24,79,67,45,30.56,30.45,8,1,8,0.02
2013-1-6,53,49,42,44,42,35,82,76,68,30.45,30.23,7,1,7,0.01
2013-1-7,55,47,39,43,37,33,85,70,46,30.59,30.30,15,4,15,0.00
2013-1-8,63,48,37,53,40,31,82,76,65,30.61,30.51,7,2,7,0.00
2013-1-9,71,58,46,58,50,41,86,76,60,30.58,30.51,8,1,8,0.00
2013-1-10,65,58,51,54,48,38,89,69,52,30.65,30.56,14,4,14,0.00
2013-1-11,73,61,48,68,55,39,89,82,68,30.58,30.32,8,2,9,0.17
2013-1-12,78,67,60,67,61,57,91,80,62,30.35,30.26,8,2,8,0.00
2013-1-13,78,66,58,66,59,53,88,79,63,30.34,30.25,8,2,9,0.00
2013-1-14,78,67,57,67,60,53,91,79,62,30.36,30.27,15,3,15,0.00
2013-1-15,78,63,56,67,57,52,92,83,64,30.33,30.22,8,3,9,0.00
2013-1-16,78,67,58,67,61,55,93,81,63,30.23,30.11,13,3,13,0.00
2013-1-17,63,57,43,60,54,39,90,88,83,30.14,29.89,16,5,16,1.34
2013-1-18,50,42,36,39,33,27,89,70,44,30.68,30.13,18,6,18,0.02
2013-1-19,61,43,33,43,31,26,80,65,49,30.67,30.44,8,2,8,0.00
2013-1-20,63,51,47,42,36,35,63,57,43,30.45,30.17,5,0,5,0.00
2013-1-21,64,50,47,44,37,35,65,62,49,30.22,30.05,7,1,7,0.00
2013-1-22,50,43,32,36,22,16,61,44,32,30.42,30.12,13,4,13,0.00
2013-1-23,47,35,26,21,14,7,56,44,30,30.55,30.31,10,2,10,0.00
2013-1-24,49,39,26,38,22,7,70,52,36,30.67,30.16,22,8,22,0.00
2013-1-25,39,31,23,30,20,8,82,64,46,30.68,30.29,9,4,9,0.07
2013-1-26,50,39,30,36,30,25,83,73,59,30.55,30.28,12,4,12,0.01
2013-1-27,47,36,28,31,27,24,88,70,49,30.73,30.55,14,4,14,0.00
2013-1-28,62,48,34,50,39,25,84,73,64,30.67,30.43,8,2,8,0.00
2013-1-29,76,62,51,63,54,47,87,78,58,30.43,30.29,9,3,9,0.01
2013-1-30,69,69,68,63,63,62,82,81,80,29.82,29.76,18,10,18,0.01
2013-1-31,70,54,44,66,39,27,86,60,39,30.25,29.68,20,8,20,0.17
2013-2-1,54,44,29,33,22,12,56,44,24,30.55,30.19,17,6,17,0.00
2013-2-2,51,38,25,38,23,11,71,55,48,30.58,30.21,8,2,9,0.00
2013-2-3,56,46,37,39,33,27,76,61,39,30.21,30.02,13,3,13,0.00
2013-2-4,55,42,31,34,29,22,73,60,43,30.32,30.15,8,1,6,0.00
2013-2-5,68,53,41,44,39,33,77,60,36,30.22,30.05,12,3,12,0.00
2013-2-6,51,51,51,46,46,46,81,81,81,30.28,30.28,2,2,2,0.00
2013-2-7,62,54,42,53,50,38,92,85,67,30.40,29.93,20,10,20,1.36
2013-2-8,60,54,48,54,48,39,93,79,64,30.17,29.71,16,7,16,0.56
2013-2-9,55,45,35,39,30,26,71,56,34,30.53,30.17,16,4,16,0.00
2013-2-10,56,45,32,49,36,23,84,70,57,30.63,30.41,12,3,12,0.00
2013-2-11,67,62,55,62,57,49,88,84,79,30.46,30.12,14,6,14,0.12
2013-2-12,67,59,54,58,52,44,90,77,48,30.25,30.08,9,3,9,0.28
2013-2-13,62,54,49,58,50,44,90,85,80,30.14,29.80,14,4,14,0.63
2013-2-14,57,49,43,47,40,36,84,72,58,30.24,29.96,10,2,10,0.00
2013-2-15,61,47,36,42,37,31,84,68,43,30.25,30.12,8,1,8,0.00
2013-2-16,55,42,35,43,36,31,87,78,63,30.12,29.87,9,3,9,0.19
2013-2-17,41,35,30,32,21,14,85,58,33,30.44,30.04,18,7,18,0.02
2013-2-18,52,38,26,30,24,18,72,56,39,30.61,30.44,7,2,7,0.00
2013-2-19,65,51,35,54,43,25,86,74,66,30.46,30.08,13,4,13,0.00
2013-2-20,60,49,40,44,34,27,83,58,32,30.28,30.13,10,3,10,0.00
2013-2-21,60,45,33,37,29,21,73,55,32,30.39,30.25,10,3,10,0.00
2013-2-22,51,46,41,48,37,27,88,72,59,30.48,30.20,13,6,13,0.27
2013-2-23,52,48,45,49,45,42,89,87,86,30.21,29.98,10,3,10,0.48
2013-2-24,65,53,46,51,46,39,90,78,55,30.16,29.91,10,3,10,0.02
2013-2-25,47,43,38,39,34,30,89,70,56,30.34,30.15,14,6,14,0.00
2013-2-26,67,57,43,64,53,34,95,87,70,30.23,29.76,16,7,16,3.29
2013-2-27,64,55,48,56,45,41,87,71,53,29.98,29.79,14,5,14,0.00
2013-2-28,60,50,40,43,38,30,81,65,46,30.00,29.86,12,5,12,0.00
2013-3-1,57,46,38,35,32,29,71,57,42,30.06,29.95,10,3,10,0.00
2013-3-2,56,43,34,34,30,26,77,60,42,30.06,29.95,12,2,12,0.00
2013-3-3,50,41,33,31,25,22,71,54,39,30.12,29.99,16,4,16,0.00
2013-3-4,51,40,31,24,21,17,62,48,32,30.28,30.12,15,4,15,0.00
2013-3-5,70,52,35,52,36,22,77,55,35,30.28,29.79,16,5,16,0.09
2013-3-6,60,50,43,53,35,26,79,57,39,30.13,29.69,23,11,23,0.39
2013-3-7,57,46,36,34,30,27,70,54,40,30.35,30.12,15,6,15,0.00
2013-3-8,56,46,35,30,27,25,68,51,33,30.40,30.26,14,5,14,0.00
2013-3-9,64,49,38,40,32,26,68,53,36,30.45,30.37,13,4,13,0.00
2013-3-10,63,49,34,38,30,19,78,52,21,30.48,30.40,10,3,10,0.00
2013-3-11,75,59,45,55,48,36,89,71,48,30.41,30.12,10,3,10,0.01
2013-3-12,72,64,58,65,58,53,89,81,71,30.12,29.92,10,3,10,0.67
2013-3-13,64,54,44,54,37,29,85,55,34,30.22,30.04,13,5,13,0.00
2013-3-14,54,44,34,30,24,20,55,44,33,30.40,30.22,13,6,13,0.00
2013-3-15,65,49,32,40,30,24,71,51,32,30.37,30.14,10,3,12,0.00
2013-3-16,82,65,53,54,47,40,65,54,37,30.14,29.92,16,7,16,0.00
2013-3-17,74,59,50,53,48,44,82,67,48,30.28,30.03,18,6,18,0.00
2013-3-18,68,56,48,54,48,42,83,75,59,30.29,30.03,12,4,12,0.00
2013-3-19,70,60,53,54,49,36,89,69,43,30.13,29.89,13,4,13,0.48
2013-3-20,63,52,43,36,28,18,62,40,21,30.27,29.97,12,3,12,0.00
2013-3-21,55,45,36,32,26,17,74,51,27,30.12,29.85,14,5,14,0.00
2013-3-22,57,42,32,32,20,14,56,42,29,30.26,30.12,10,3,10,0.00
2013-3-23,59,47,36,42,34,27,73,61,46,30.21,30.06,8,1,8,0.03
2013-3-24,58,49,44,55,45,36,93,85,73,30.08,29.56,18,6,18,1.05
2013-3-25,56,48,43,42,37,27,88,66,42,30.00,29.67,17,7,17,0.00
2013-3-26,56,45,36,33,28,25,64,52,39,30.26,30.00,13,5,13,0.00
2013-3-27,57,47,37,30,27,24,64,48,32,30.37,30.26,14,6,14,0.00
2013-3-28,58,47,36,30,26,22,61,45,31,30.41,30.30,14,4,14,0.00
2013-3-29,64,49,34,37,30,23,67,49,30,30.49,30.36,10,3,10,0.00
2013-3-30,66,54,49,47,42,35,78,63,44,30.42,30.29,6,2,6,0.04
2013-3-31,78,62,49,59,51,39,85,69,52,30.30,30.03,12,4,12,0.05
2013-4-1,76,65,56,63,56,49,86,74,53,30.06,29.96,10,4,10,0.08
2013-4-2,66,56,47,51,40,31,82,56,38,30.29,30.06,14,4,14,0.00
2013-4-3,61,52,46,43,37,30,79,58,33,30.43,30.26,14,4,15,0.00
2013-4-4,58,51,47,56,45,38,93,81,65,30.43,29.92,17,7,17,1.33
2013-4-5,59,50,44,56,45,40,90,82,67,30.18,29.93,13,4,13,0.00
2013-4-6,67,52,40,47,40,35,88,66,40,30.44,30.18,13,5,13,0.00
2013-4-7,74,58,40,58,47,33,85,69,55,30.43,30.31,7,2,7,0.00
2013-4-8,84,67,52,64,56,46,85,68,48,30.36,30.27,9,3,9,0.00
2013-4-9,87,72,58,68,60,52,85,68,45,30.39,30.27,8,3,8,0.00
2013-4-10,88,73,63,67,61,57,85,67,45,30.32,30.18,10,5,11,0.00
2013-4-11,88,74,63,70,64,58,88,73,53,30.19,30.03,14,5,14,0.00
2013-4-12,84,72,68,74,66,62,90,83,69,30.04,29.86,15,6,15,2.11
2013-4-13,71,65,54,64,54,46,88,69,49,30.18,29.91,13,3,13,0.01
2013-4-14,79,64,48,59,51,42,85,65,43,30.27,30.18,4,1,4,0.00
2013-4-15,74,66,60,62,59,55,87,76,66,30.34,30.11,18,4,19,2.31
2013-4-16,82,68,58,66,59,55,89,75,55,30.42,30.32,9,3,9,0.00
2013-4-17,86,70,56,68,59,51,85,70,48,30.40,30.30,6,2,6,0.00
2013-4-18,83,70,58,66,61,52,87,73,53,30.35,30.23,13,3,13,0.01
2013-4-19,85,73,68,74,67,63,87,81,67,30.23,30.04,13,5,13,1.44
2013-4-20,69,59,51,65,50,41,88,72,53,30.40,30.03,13,5,13,1.07
2013-4-21,70,54,44,51,42,37,87,65,45,30.58,30.41,17,6,17,0.00
2013-4-22,62,52,44,50,44,36,87,75,64,30.57,30.31,20,9,20,0.01
2013-4-23,69,58,51,54,50,48,90,77,55,30.35,30.26,13,5,13,0.00
2013-4-24,81,65,48,64,54,42,86,71,52,30.34,30.22,9,2,9,0.00
2013-4-25,78,66,55,63,58,49,84,76,56,30.42,30.21,12,4,13,0.01
2013-4-26,74,60,47,52,46,40,85,64,35,30.55,30.41,12,4,12,0.01
2013-4-27,74,63,52,52,47,39,83,59,29,30.53,30.43,12,4,12,0.00
2013-4-28,75,67,60,57,52,50,75,61,43,30.43,30.26,12,5,12,0.00
2013-4-29,78,68,64,67,60,57,87,77,66,30.26,30.14,8,3,8,1.10